createdAt,value
2023-04-22T00:01:07.917Z,18.17
2023-04-22T00:03:45.822Z,17.05
2023-04-22T00:06:18.780Z,16.83
2023-04-22T00:08:56.538Z,16.80
2023-04-22T00:11:29.242Z,15.73
2023-04-22T00:14:08.482Z,17.10
2023-04-22T00:16:46.995Z,16.38
2023-04-22T00:19:24.430Z,15.40
2023-04-22T00:21:54.614Z,16.83
2023-04-22T00:24:30.137Z,16.45
2023-04-22T00:27:12.619Z,16.50
2023-04-22T00:29:55.876Z,17.15
2023-04-22T00:32:35.461Z,17.55
2023-04-22T00:35:13.894Z,16.27
2023-04-22T00:37:55.241Z,16.92
2023-04-22T00:40:28.092Z,16.50
2023-04-22T00:43:08.600Z,19.50
2023-04-22T00:45:47.623Z,20.33
2023-04-22T00:48:30.877Z,24.27
2023-04-22T00:51:09.602Z,27.63
2023-04-22T00:53:51.089Z,24.27
2023-04-22T00:56:26.630Z,23.33
2023-04-22T00:59:13.796Z,21.50
2023-04-22T01:01:48.949Z,23.15
2023-04-22T01:04:31.139Z,23.35
2023-04-22T01:07:07.461Z,25.33
2023-04-22T01:09:44.349Z,24.33
2023-04-22T01:12:31.876Z,23.10
2023-04-22T01:15:05.228Z,24.60
2023-04-22T01:17:46.075Z,24.08
2023-04-22T01:20:26.823Z,22.70
2023-04-22T01:23:14.340Z,24.77
2023-04-22T01:25:53.718Z,23.73
2023-04-22T01:28:29.611Z,24.02
2023-04-22T01:30:59.805Z,24.80
2023-04-22T01:33:35.617Z,21.35
2023-04-22T01:36:18.449Z,21.77
2023-04-22T01:39:06.227Z,22.23
2023-04-22T01:41:39.826Z,21.85
2023-04-22T01:44:19.899Z,21.02
2023-04-22T01:47:05.384Z,19.95
2023-04-22T01:49:43.253Z,22.17
2023-04-22T01:52:16.302Z,21.58
2023-04-22T01:54:51.481Z,23.02
2023-04-22T01:57:31.989Z,20.83
2023-04-22T02:02:54.915Z,22.50
2023-04-22T02:05:34.474Z,24.33
2023-04-22T02:08:12.359Z,23.13
2023-04-22T02:11:00.591Z,25.73
2023-04-22T02:13:47.671Z,28.10
2023-04-22T02:16:35.273Z,29.92
2023-04-22T02:19:12.235Z,36.38
2023-04-22T02:21:49.577Z,55.92
2023-04-22T02:24:30.180Z,46.78
2023-04-22T02:27:09.995Z,42.08
2023-04-22T02:29:46.153Z,37.80
2023-04-22T02:32:34.213Z,34.40
2023-04-22T02:35:27.177Z,31.35
2023-04-22T02:38:11.568Z,27.75
2023-04-22T02:40:53.609Z,25.02
2023-04-22T02:43:34.232Z,23.52
2023-04-22T02:46:18.620Z,24.40
2023-04-22T02:48:58.969Z,23.17
2023-04-22T02:51:39.156Z,24.50
2023-04-22T02:54:12.007Z,19.80
2023-04-22T02:56:44.735Z,20.95
2023-04-22T02:59:25.663Z,20.27
2023-04-22T03:02:00.507Z,22.92
2023-04-22T03:04:48.014Z,24.65
2023-04-22T03:07:24.959Z,22.17
2023-04-22T03:10:06.458Z,23.90
2023-04-22T03:12:49.119Z,23.00
2023-04-22T03:15:30.362Z,26.17
2023-04-22T03:18:05.977Z,28.42
2023-04-22T03:20:44.026Z,28.27
2023-04-22T03:23:33.713Z,27.65
2023-04-22T03:26:09.077Z,34.17
2023-04-22T03:28:51.946Z,32.20
2023-04-22T03:31:29.865Z,31.63
2023-04-22T03:34:13.198Z,31.48
2023-04-22T03:36:55.299Z,27.27
2023-04-22T03:39:32.757Z,34.33
2023-04-22T03:42:15.152Z,36.17
2023-04-22T03:45:01.407Z,35.05
2023-04-22T03:47:50.912Z,32.25
2023-04-22T03:50:30.621Z,33.47
2023-04-22T03:53:15.092Z,33.53
2023-04-22T03:55:55.378Z,32.75
2023-04-22T03:58:38.701Z,31.05
2023-04-22T04:01:24.688Z,34.05
2023-04-22T04:04:07.798Z,36.78
2023-04-22T04:07:03.887Z,35.40
2023-04-22T04:09:39.479Z,35.00
2023-04-22T04:12:26.526Z,38.28
2023-04-22T04:15:04.557Z,44.65
2023-04-22T04:17:46.205Z,41.70
2023-04-22T04:20:22.499Z,41.90
2023-04-22T04:23:08.081Z,46.03
2023-04-22T04:25:47.954Z,43.90
2023-04-22T04:28:32.381Z,44.38
2023-04-22T04:31:09.603Z,38.85
2023-04-22T04:33:46.780Z,38.22
2023-04-22T04:36:29.402Z,41.35
2023-04-22T04:39:18.989Z,41.47
2023-04-22T04:42:15.493Z,40.45
2023-04-22T04:45:04.492Z,40.83
2023-04-22T04:47:54.835Z,44.25
2023-04-22T04:50:44.512Z,44.50
2023-04-22T04:53:25.698Z,48.33
2023-04-22T04:55:58.523Z,43.20
2023-04-22T04:58:38.395Z,40.28
2023-04-22T05:01:41.454Z,40.03
2023-04-22T05:04:29.797Z,34.75
2023-04-22T05:07:13.439Z,24.20
2023-04-22T05:10:00.762Z,20.88
2023-04-22T05:12:41.374Z,20.80
2023-04-22T05:15:29.316Z,17.73
2023-04-22T05:18:07.929Z,17.35
2023-04-22T05:20:51.243Z,17.63
2023-04-22T05:23:31.430Z,16.23
2023-04-22T05:26:09.268Z,15.40
2023-04-22T05:28:54.003Z,14.20
2023-04-22T05:31:36.634Z,13.90
2023-04-22T05:34:16.623Z,13.50
2023-04-22T05:37:00.814Z,14.80
2023-04-22T05:39:39.834Z,12.50
2023-04-22T05:42:20.579Z,12.57
2023-04-22T05:45:03.091Z,11.20
2023-04-22T05:47:40.940Z,12.70
2023-04-22T05:50:22.808Z,10.73
2023-04-22T05:53:12.741Z,9.73
2023-04-22T05:55:49.461Z,9.00
2023-04-22T05:58:24.342Z,7.97
2023-04-22T06:01:07.333Z,8.85
2023-04-22T06:04:12.665Z,8.63
2023-04-22T06:06:48.198Z,8.30
2023-04-22T06:09:31.423Z,7.88
2023-04-22T06:12:02.256Z,8.20
2023-04-22T06:14:41.215Z,7.75
2023-04-22T06:17:17.396Z,7.53
2023-04-22T06:19:53.464Z,7.07
2023-04-22T06:22:30.590Z,7.35
2023-04-22T06:25:05.939Z,6.47
2023-04-22T06:27:38.682Z,6.93
2023-04-22T06:30:19.798Z,6.22
2023-04-22T06:32:55.544Z,6.57
2023-04-22T06:35:36.430Z,6.82
2023-04-22T06:38:20.619Z,6.65
2023-04-22T06:41:13.676Z,6.25
2023-04-22T06:43:57.342Z,6.40
2023-04-22T06:46:59.983Z,6.93
2023-04-22T06:49:56.495Z,6.35
2023-04-22T06:52:34.487Z,7.03
2023-04-22T06:55:08.607Z,6.70
2023-04-22T06:57:46.714Z,6.20
2023-04-22T07:00:40.458Z,6.60
2023-04-22T07:03:21.413Z,6.25
2023-04-22T07:06:06.429Z,6.32
2023-04-22T07:08:47.012Z,5.38
2023-04-22T07:11:24.260Z,5.35
2023-04-22T07:14:08.613Z,5.75
2023-04-22T07:16:42.934Z,5.80
2023-04-22T07:19:23.968Z,5.47
2023-04-22T07:22:05.031Z,5.25
2023-04-22T07:24:38.673Z,5.90
2023-04-22T07:29:47.821Z,5.32
2023-04-22T07:32:26.264Z,5.35
2023-04-22T07:35:07.191Z,5.38
2023-04-22T07:37:45.953Z,5.30
2023-04-22T07:40:24.244Z,5.50
2023-04-22T07:43:05.087Z,6.07
2023-04-22T07:45:43.978Z,6.43
2023-04-22T07:48:27.510Z,6.57
2023-04-22T07:51:02.768Z,5.47
2023-04-22T07:53:46.251Z,6.10
2023-04-22T07:56:21.425Z,5.85
2023-04-22T07:58:56.585Z,6.47
2023-04-22T08:01:32.191Z,6.90
2023-04-22T08:04:11.086Z,6.40
2023-04-22T08:06:52.186Z,6.55
2023-04-22T08:09:27.426Z,6.13
2023-04-22T08:12:08.696Z,6.20
2023-04-22T08:14:49.935Z,5.78
2023-04-22T08:17:33.812Z,5.45
2023-04-22T08:20:08.190Z,5.13
2023-04-22T08:22:44.565Z,5.70
2023-04-22T08:25:17.438Z,6.20
2023-04-22T08:27:55.692Z,5.93
2023-04-22T08:30:46.454Z,6.05
2023-04-22T08:33:19.441Z,5.90
2023-04-22T08:35:59.696Z,5.93
2023-04-22T08:38:32.099Z,5.78
2023-04-22T08:41:03.826Z,5.13
2023-04-22T08:43:39.427Z,6.18
2023-04-22T08:46:17.897Z,5.70
2023-04-22T08:49:04.117Z,5.57
2023-04-22T08:51:40.846Z,5.78
2023-04-22T08:54:19.626Z,5.72
2023-04-22T08:57:03.198Z,5.40
2023-04-22T08:59:42.733Z,5.93
2023-04-22T09:02:19.505Z,5.40
2023-04-22T09:05:03.713Z,5.35
2023-04-22T09:07:42.231Z,5.68
2023-04-22T09:10:22.316Z,5.45
2023-04-22T09:12:58.726Z,5.15
2023-04-22T09:15:35.990Z,5.43
2023-04-22T09:18:05.671Z,4.97
2023-04-22T09:20:35.404Z,4.75
2023-04-22T09:23:10.546Z,4.72
2023-04-22T09:25:47.884Z,4.65
2023-04-22T09:28:23.528Z,4.90
2023-04-22T09:31:00.540Z,4.50
2023-04-22T09:33:31.492Z,4.63
2023-04-22T09:36:15.020Z,5.07
2023-04-22T09:39:04.579Z,4.55
2023-04-22T09:41:46.036Z,4.45
2023-04-22T09:46:57.634Z,4.82
2023-04-22T09:49:31.283Z,4.93
2023-04-22T09:54:55.040Z,4.47
2023-04-22T09:57:29.685Z,4.95
2023-04-22T10:00:10.542Z,4.93
2023-04-22T10:02:46.703Z,5.32
2023-04-22T10:05:30.780Z,4.95
2023-04-22T10:08:09.690Z,4.50
2023-04-22T10:10:40.562Z,5.07
2023-04-22T10:13:13.666Z,4.80
2023-04-22T10:15:52.637Z,5.20
2023-04-22T10:18:33.994Z,5.10
2023-04-22T10:21:13.142Z,5.15
2023-04-22T10:23:53.407Z,5.10
2023-04-22T10:27:10.841Z,5.40
2023-04-22T10:29:45.922Z,5.00
2023-04-22T10:32:27.973Z,5.53
2023-04-22T10:35:14.485Z,4.38
2023-04-22T10:37:49.753Z,3.60
2023-04-22T10:40:27.787Z,4.80
2023-04-22T10:43:04.715Z,4.90
2023-04-22T10:45:40.268Z,4.75
2023-04-22T10:48:13.276Z,5.25
2023-04-22T10:50:48.102Z,4.88
2023-04-22T10:53:40.810Z,4.95
2023-04-22T10:56:19.514Z,4.72
2023-04-22T10:59:06.201Z,5.10
2023-04-22T11:01:50.121Z,4.25
2023-04-22T11:07:20.728Z,4.13
2023-04-22T11:10:01.146Z,4.97
2023-04-22T11:12:43.670Z,4.68
2023-04-22T11:15:26.339Z,4.75
2023-04-22T11:18:02.185Z,4.80
2023-04-22T11:20:42.215Z,5.32
2023-04-22T11:23:23.681Z,5.28
2023-04-22T11:26:08.946Z,4.70
2023-04-22T11:28:50.102Z,4.57
2023-04-22T11:31:30.845Z,4.85
2023-04-22T11:34:11.292Z,4.85
2023-04-22T11:36:52.753Z,4.93
2023-04-22T11:39:46.565Z,4.63
2023-04-22T11:42:26.290Z,4.57
2023-04-22T11:45:04.763Z,5.07
2023-04-22T11:47:46.518Z,5.10
2023-04-22T11:50:27.464Z,5.40
2023-04-22T11:53:18.189Z,5.38
2023-04-22T11:55:53.625Z,4.82
2023-04-22T11:58:37.836Z,5.55
2023-04-22T12:01:21.138Z,5.35
2023-04-22T12:04:04.148Z,5.25
2023-04-22T12:06:41.291Z,5.03
2023-04-22T12:09:14.148Z,5.00
2023-04-22T12:12:01.419Z,5.05
2023-04-22T12:14:45.835Z,4.60
2023-04-22T12:17:27.083Z,4.43
2023-04-22T12:20:05.457Z,4.10
2023-04-22T12:22:43.237Z,4.63
2023-04-22T12:25:22.936Z,5.05
2023-04-22T12:28:03.855Z,4.60
2023-04-22T12:30:45.616Z,4.43
2023-04-22T12:33:16.471Z,4.50
2023-04-22T12:36:01.985Z,5.18
2023-04-22T12:38:32.083Z,5.25
2023-04-22T12:41:12.427Z,4.80
2023-04-22T12:43:50.205Z,5.05
2023-04-22T12:46:34.037Z,4.53
2023-04-22T12:51:50.041Z,4.40
2023-04-22T12:54:24.062Z,4.20
2023-04-22T12:56:59.724Z,4.53
2023-04-22T12:59:40.930Z,4.68
2023-04-22T13:02:24.702Z,4.07
2023-04-22T13:04:56.967Z,4.53
2023-04-22T13:07:31.585Z,4.97
2023-04-22T13:10:08.487Z,4.43
2023-04-22T13:12:51.832Z,4.28
2023-04-22T13:15:30.158Z,4.18
2023-04-22T13:18:08.030Z,4.22
2023-04-22T13:20:45.704Z,4.78
2023-04-22T13:23:22.098Z,4.13
2023-04-22T13:26:05.393Z,4.65
2023-04-22T13:28:38.146Z,4.10
2023-04-22T13:31:16.417Z,4.70
2023-04-22T13:33:53.915Z,4.47
2023-04-22T13:36:29.374Z,4.40
2023-04-22T13:39:03.605Z,4.47
2023-04-22T13:41:41.379Z,4.45
2023-04-22T13:44:27.704Z,4.40
2023-04-22T13:49:32.864Z,4.13
2023-04-22T13:52:08.492Z,4.22
2023-04-22T13:54:59.687Z,4.85
2023-04-22T13:57:42.291Z,4.53
2023-04-22T14:00:22.828Z,4.75
2023-04-22T14:03:00.487Z,4.95
2023-04-22T14:05:38.759Z,4.78
2023-04-22T14:08:14.339Z,5.15
2023-04-22T14:10:46.662Z,4.13
2023-04-22T14:13:19.804Z,4.87
2023-04-22T14:16:12.764Z,4.50
2023-04-22T14:18:51.493Z,4.88
2023-04-22T14:21:28.115Z,4.93
2023-04-22T14:24:07.394Z,4.72
2023-04-22T14:26:45.064Z,4.88
2023-04-22T14:29:20.555Z,4.40
2023-04-22T14:32:03.751Z,4.53
2023-04-22T14:34:42.520Z,4.70
2023-04-22T14:37:21.875Z,4.50
2023-04-22T14:40:01.608Z,4.80
2023-04-22T14:42:36.544Z,3.97
2023-04-22T14:45:22.837Z,4.43
2023-04-22T14:47:58.425Z,5.00
2023-04-22T14:50:35.584Z,4.35
2023-04-22T14:53:11.458Z,4.70
2023-04-22T14:55:48.903Z,4.95
2023-04-22T14:58:27.194Z,5.18
2023-04-22T15:01:00.348Z,4.53
2023-04-22T15:03:36.384Z,4.75
2023-04-22T15:06:11.693Z,3.92
2023-04-22T15:08:51.937Z,4.40
2023-04-22T15:11:38.015Z,4.35
2023-04-22T15:14:18.382Z,4.18
2023-04-22T15:16:58.451Z,4.30
2023-04-22T15:19:37.420Z,4.35
2023-04-22T15:22:35.098Z,4.50
2023-04-22T15:25:16.769Z,4.60
2023-04-22T15:28:00.848Z,4.45
2023-04-22T15:30:44.495Z,4.63
2023-04-22T15:33:24.782Z,4.13
2023-04-22T15:36:05.363Z,4.75
2023-04-22T15:38:40.102Z,5.25
2023-04-22T15:41:18.950Z,4.35
2023-04-22T15:43:55.459Z,4.63
2023-04-22T15:46:40.293Z,4.88
2023-04-22T15:49:24.391Z,4.53
2023-04-22T15:52:02.595Z,4.75
2023-04-22T15:54:38.453Z,4.00
2023-04-22T15:57:17.578Z,4.57
2023-04-22T15:59:51.465Z,5.07
2023-04-22T16:02:34.195Z,4.90
2023-04-22T16:05:12.633Z,4.95
2023-04-22T16:07:55.905Z,4.43
2023-04-22T16:10:33.396Z,5.30
2023-04-22T16:13:06.228Z,4.70
2023-04-22T16:15:45.529Z,5.60
2023-04-22T16:18:26.680Z,4.65
2023-04-22T16:21:00.690Z,5.47
2023-04-22T16:23:38.456Z,5.30
2023-04-22T16:26:22.285Z,4.88
2023-04-22T16:29:13.208Z,4.80
2023-04-22T16:31:51.493Z,5.47
2023-04-22T16:34:21.722Z,5.13
2023-04-22T16:36:56.937Z,4.78
2023-04-22T16:39:35.625Z,5.85
2023-04-22T16:42:21.881Z,5.95
2023-04-22T16:45:02.395Z,7.38
2023-04-22T16:47:38.207Z,7.13
2023-04-22T16:50:17.368Z,7.15
2023-04-22T16:52:53.834Z,6.57
2023-04-22T16:55:32.825Z,6.40
2023-04-22T16:58:17.357Z,6.03
2023-04-22T17:00:55.437Z,6.47
2023-04-22T17:03:30.795Z,6.03
2023-04-22T17:06:08.763Z,6.28
2023-04-22T17:08:44.471Z,6.88
2023-04-22T17:11:20.489Z,7.50
2023-04-22T17:13:58.311Z,7.03
2023-04-22T17:16:41.791Z,12.20
2023-04-22T17:19:32.804Z,10.82
2023-04-22T17:22:09.501Z,10.10
2023-04-22T17:24:53.947Z,12.38
2023-04-22T17:27:31.677Z,14.32
2023-04-22T17:30:18.497Z,14.93
2023-04-22T17:32:59.865Z,15.35
2023-04-22T17:35:40.561Z,13.68
2023-04-22T17:38:23.757Z,12.50
2023-04-22T17:41:05.306Z,10.60
2023-04-22T17:43:43.741Z,11.00
2023-04-22T17:46:25.158Z,8.80
2023-04-22T17:49:05.939Z,9.32
2023-04-22T17:51:47.464Z,8.93
2023-04-22T17:54:27.864Z,8.95
2023-04-22T17:57:09.481Z,8.50
2023-04-22T17:59:47.197Z,8.57
2023-04-22T18:02:18.968Z,9.77
2023-04-22T18:04:59.806Z,8.90
2023-04-22T18:07:45.290Z,8.38
2023-04-22T18:10:32.252Z,8.80
2023-04-22T18:13:11.808Z,8.27
2023-04-22T18:15:50.077Z,8.43
2023-04-22T18:18:33.624Z,11.18
2023-04-22T18:21:11.366Z,11.35
2023-04-22T18:23:47.312Z,10.88
2023-04-22T18:26:52.405Z,12.25
2023-04-22T18:29:41.550Z,13.15
2023-04-22T18:32:23.818Z,16.35
2023-04-22T18:35:21.067Z,21.83
2023-04-22T18:38:05.420Z,19.30
2023-04-22T18:40:41.430Z,18.02
2023-04-22T18:43:14.014Z,18.58
2023-04-22T18:45:51.791Z,18.92
2023-04-22T18:48:33.126Z,20.45
2023-04-22T18:51:13.666Z,19.40
2023-04-22T18:53:53.721Z,18.38
2023-04-22T18:56:36.469Z,16.00
2023-04-22T18:59:14.866Z,16.38
2023-04-22T19:01:55.892Z,15.45
2023-04-22T19:04:34.618Z,15.73
2023-04-22T19:07:16.628Z,17.15
2023-04-22T19:09:47.447Z,16.48
2023-04-22T19:12:28.233Z,18.55
2023-04-22T19:15:08.906Z,18.00
2023-04-22T19:17:49.786Z,18.45
2023-04-22T19:20:24.872Z,18.10
2023-04-22T19:23:04.292Z,19.42
2023-04-22T19:25:45.086Z,19.38
2023-04-22T19:28:26.108Z,19.10
2023-04-22T19:31:07.441Z,19.73
2023-04-22T19:33:40.307Z,18.33
2023-04-22T19:36:12.517Z,18.67
2023-04-22T19:38:46.521Z,18.80
2023-04-22T19:41:21.902Z,19.05
2023-04-22T19:43:59.823Z,20.38
2023-04-22T19:46:43.759Z,20.05
2023-04-22T19:49:17.706Z,18.08
2023-04-22T19:51:56.823Z,17.88
2023-04-22T19:54:39.645Z,16.33
2023-04-22T19:57:15.413Z,16.55
2023-04-22T19:59:51.120Z,16.05
2023-04-22T20:02:24.033Z,15.60
2023-04-22T20:05:07.852Z,15.93
2023-04-22T20:07:51.400Z,14.60
2023-04-22T20:10:29.373Z,13.50
2023-04-22T20:13:04.015Z,12.40
2023-04-22T20:15:45.784Z,12.75
2023-04-22T20:18:17.958Z,12.27
2023-04-22T20:20:57.345Z,14.00
2023-04-22T20:23:34.908Z,14.05
2023-04-22T20:26:10.697Z,14.02
2023-04-22T20:28:58.093Z,13.40
2023-04-22T20:31:38.304Z,14.45
2023-04-22T20:34:15.712Z,13.60
2023-04-22T20:36:56.081Z,12.65
2023-04-22T20:39:37.748Z,12.25
2023-04-22T20:42:16.954Z,11.45
2023-04-22T20:44:57.657Z,11.20
2023-04-22T20:47:32.676Z,11.18
2023-04-22T20:50:11.098Z,11.07
2023-04-22T20:52:54.528Z,9.95
2023-04-22T20:55:31.643Z,9.95
2023-04-22T20:58:18.428Z,10.60
2023-04-22T21:00:56.009Z,10.68
2023-04-22T21:03:40.041Z,10.82
2023-04-22T21:06:13.073Z,11.70
2023-04-22T21:08:55.310Z,10.88
2023-04-22T21:11:38.627Z,11.32
2023-04-22T21:14:21.934Z,11.15
2023-04-22T21:17:05.324Z,11.90
2023-04-22T21:19:48.289Z,15.13
2023-04-22T21:22:30.530Z,17.33
2023-04-22T21:25:16.748Z,16.38
2023-04-22T21:27:55.600Z,15.90
2023-04-22T21:30:35.218Z,16.75
2023-04-22T21:33:13.552Z,16.23
2023-04-22T21:35:49.370Z,17.02
2023-04-22T21:38:30.845Z,21.48
2023-04-22T21:41:12.086Z,22.88
2023-04-22T21:43:47.431Z,20.90
2023-04-22T21:46:24.439Z,17.42
2023-04-22T21:49:05.496Z,15.88
2023-04-22T21:51:46.877Z,13.32
2023-04-22T21:54:33.701Z,12.82
2023-04-22T21:57:09.138Z,12.48
2023-04-22T21:59:52.214Z,13.98
2023-04-22T22:02:29.141Z,13.03
2023-04-22T22:05:07.275Z,12.73
2023-04-22T22:07:45.777Z,12.55
2023-04-22T22:10:25.165Z,11.70
2023-04-22T22:13:03.557Z,11.55
2023-04-22T22:15:49.523Z,11.88
2023-04-22T22:18:28.334Z,11.15
2023-04-22T22:21:06.020Z,11.50
2023-04-22T22:23:51.343Z,12.65
2023-04-22T22:26:36.555Z,11.07
2023-04-22T22:29:18.604Z,11.48
2023-04-22T22:32:07.104Z,11.55
2023-04-22T22:34:43.983Z,10.95
2023-04-22T22:37:22.492Z,11.27
2023-04-22T22:40:19.273Z,10.10
2023-04-22T22:42:55.413Z,11.35
2023-04-22T22:45:34.501Z,13.90
2023-04-22T22:48:15.000Z,14.30
2023-04-22T22:50:53.303Z,16.40
2023-04-22T22:53:27.723Z,19.25
2023-04-22T22:56:06.683Z,14.07
2023-04-22T22:58:45.991Z,13.73
2023-04-22T23:01:30.866Z,13.07
2023-04-22T23:04:16.045Z,13.52
2023-04-22T23:06:55.347Z,13.85
2023-04-22T23:09:32.913Z,11.23
2023-04-22T23:12:19.489Z,12.20
2023-04-22T23:15:02.922Z,13.32
2023-04-22T23:17:52.742Z,11.15
2023-04-22T23:20:28.406Z,12.75
2023-04-22T23:23:13.123Z,12.45
2023-04-22T23:25:48.819Z,12.80
2023-04-22T23:28:29.539Z,12.30
2023-04-22T23:31:11.686Z,13.70
2023-04-22T23:33:50.850Z,14.35
2023-04-22T23:36:36.776Z,14.35
2023-04-22T23:39:24.056Z,16.27
2023-04-22T23:42:07.776Z,16.30
2023-04-22T23:44:51.869Z,15.82
2023-04-22T23:47:35.128Z,15.55
2023-04-22T23:50:21.749Z,16.38
2023-04-22T23:52:59.675Z,14.45
2023-04-22T23:55:43.682Z,15.63
2023-04-22T23:58:19.055Z,13.40
